createdAt,value
2018-07-25T00:02:22.777Z,97146.23
2018-07-25T00:04:55.277Z,97143.55
2018-07-25T00:07:29.490Z,97146.23
2018-07-25T00:10:02.847Z,97143.31
2018-07-25T00:12:35.356Z,97145.97
2018-07-25T00:15:08.027Z,97145.44
2018-07-25T00:17:40.657Z,97147.57
2018-07-25T00:20:14.459Z,97149.43
2018-07-25T00:22:48.183Z,97153.53
2018-07-25T00:25:20.871Z,97145.44
2018-07-25T00:27:54.264Z,97151.61
2018-07-25T00:30:29.038Z,97152.11
2018-07-25T00:36:10.706Z,97143.05
2018-07-25T00:38:40.735Z,97142.51
2018-07-25T00:43:46.181Z,97142.52
2018-07-25T00:49:13.576Z,97143.05
2018-07-25T00:51:44.818Z,97142.25
2018-07-25T00:54:14.776Z,97140.09
2018-07-25T00:56:46.152Z,97148.38
2018-07-25T00:59:17.397Z,97152.42
2018-07-25T01:01:49.233Z,97149.18
2018-07-25T01:04:20.900Z,97144.08
2018-07-25T01:06:52.351Z,97149.14
2018-07-25T01:09:23.544Z,97151.06
2018-07-25T01:11:55.093Z,97154.27
2018-07-25T01:14:26.023Z,97151.30
2018-07-25T01:16:57.058Z,97156.09
2018-07-25T01:19:27.867Z,97164.51
2018-07-25T01:21:58.359Z,97161.34
2018-07-25T01:24:29.444Z,97157.13
2018-07-25T01:27:00.124Z,97161.44
2018-07-25T01:29:31.558Z,97161.55
2018-07-25T01:32:14.667Z,97158.17
2018-07-25T01:34:59.740Z,97169.33
2018-07-25T01:37:36.703Z,97163.73
2018-07-25T01:40:21.393Z,97166.72
2018-07-25T01:43:03.479Z,97162.94
2018-07-25T01:45:40.699Z,97169.39
2018-07-25T01:48:51.691Z,97173.02
2018-07-25T01:51:36.554Z,97172.55
2018-07-25T01:54:12.645Z,97175.55
2018-07-25T01:56:50.991Z,97170.70
2018-07-25T01:59:32.696Z,97169.70
2018-07-25T02:05:02.075Z,97168.05
2018-07-25T02:07:46.171Z,97172.09
2018-07-25T02:10:24.179Z,97177.17
2018-07-25T02:13:06.696Z,97172.38
2018-07-25T02:15:46.447Z,97173.77
2018-07-25T02:18:29.649Z,97168.14
2018-07-25T02:21:15.664Z,97171.51
2018-07-25T02:23:57.633Z,97165.37
2018-07-25T02:26:35.492Z,97165.95
2018-07-25T02:29:12.192Z,97164.36
2018-07-25T02:31:50.305Z,97167.27
2018-07-25T02:34:30.010Z,97167.55
2018-07-25T02:37:13.977Z,97160.49
2018-07-25T02:39:48.182Z,97172.13
2018-07-25T02:42:32.107Z,97171.10
2018-07-25T02:45:09.958Z,97158.19
2018-07-25T02:47:48.509Z,97160.89
2018-07-25T02:50:30.113Z,97158.26
2018-07-25T02:53:12.322Z,97161.15
2018-07-25T02:55:47.040Z,97160.24
2018-07-25T03:01:15.011Z,97165.87
2018-07-25T03:03:57.612Z,97164.91
2018-07-25T03:06:35.129Z,97168.07
2018-07-25T03:09:18.529Z,97165.89
2018-07-25T03:11:57.349Z,97160.84
2018-07-25T03:14:37.913Z,97161.95
2018-07-25T03:17:19.027Z,97165.37
2018-07-25T03:19:54.859Z,97161.69
2018-07-25T03:22:29.808Z,97166.42
2018-07-25T03:25:16.431Z,97167.45
2018-07-25T03:33:22.715Z,97174.56
2018-07-25T03:36:06.369Z,97169.27
2018-07-25T03:41:29.465Z,97170.84
2018-07-25T03:44:12.812Z,97174.91
2018-07-25T03:46:52.993Z,97177.02
2018-07-25T03:49:39.739Z,97178.09
2018-07-25T03:52:18.630Z,97171.95
2018-07-25T03:54:53.920Z,97176.20
2018-07-25T03:57:28.128Z,97174.89
2018-07-25T04:00:07.919Z,97182.91
2018-07-25T04:02:50.665Z,97184.24
2018-07-25T04:05:30.254Z,97183.50
2018-07-25T04:08:17.031Z,97185.86
2018-07-25T04:11:04.781Z,97189.25
2018-07-25T04:13:52.998Z,97186.75
2018-07-25T04:19:41.778Z,97186.10
2018-07-25T04:22:41.874Z,97185.02
2018-07-25T04:25:33.889Z,97185.07
2018-07-25T04:28:24.047Z,97179.21
2018-07-25T04:31:22.836Z,97186.71
2018-07-25T04:34:15.834Z,97187.25
2018-07-25T04:40:15.604Z,97183.48
2018-07-25T04:46:08.038Z,97194.20
2018-07-25T04:49:11.593Z,97186.71
2018-07-25T04:52:16.168Z,97191.84
2018-07-25T04:55:02.796Z,97194.75
2018-07-25T05:00:54.937Z,97196.05
2018-07-25T05:06:40.852Z,97194.32
2018-07-25T05:09:32.810Z,97198.86
2018-07-25T05:12:26.700Z,97205.05
2018-07-25T05:15:18.506Z,97192.88
2018-07-25T05:18:11.072Z,97195.89
2018-07-25T05:23:59.847Z,97194.43
2018-07-25T05:33:00.296Z,97196.19
2018-07-25T05:35:51.966Z,97197.53
2018-07-25T05:41:34.983Z,97205.91
2018-07-25T05:44:25.180Z,97202.14
2018-07-25T05:47:24.885Z,97202.61
2018-07-25T05:56:08.421Z,97193.41
2018-07-25T06:02:02.381Z,97191.47
2018-07-25T06:07:59.133Z,97196.92
2018-07-25T06:16:41.288Z,97192.80
2018-07-25T06:19:35.994Z,97196.02
2018-07-25T06:39:54.534Z,97198.72
2018-07-25T06:48:42.017Z,97204.67
2018-07-25T06:57:25.288Z,97200.66
2018-07-25T07:00:23.829Z,97199.13
2018-07-25T07:03:14.392Z,97191.18
2018-07-25T07:26:41.470Z,97191.51
2018-07-25T07:29:32.804Z,97194.73
2018-07-25T07:32:24.015Z,97197.27
2018-07-25T07:35:18.583Z,97193.55
2018-07-25T07:38:09.743Z,97188.13
2018-07-25T07:49:57.025Z,97184.38
2018-07-25T07:52:50.102Z,97186.52
2018-07-25T07:58:47.132Z,97183.33
2018-07-25T08:07:40.849Z,97176.62
2018-07-25T08:16:33.792Z,97179.34
2018-07-25T08:22:23.157Z,97184.23
2018-07-25T08:25:14.544Z,97184.69
2018-07-25T08:36:54.966Z,97175.17
2018-07-25T08:39:53.509Z,97178.60
2018-07-25T08:48:47.026Z,97169.11
2018-07-25T08:54:35.469Z,97175.89
2018-07-25T09:03:17.826Z,97176.23
2018-07-25T09:12:07.416Z,97163.11
2018-07-25T09:20:55.833Z,97156.39
2018-07-25T09:23:50.222Z,97154.98
2018-07-25T09:35:42.048Z,97143.83
2018-07-25T09:38:42.529Z,97145.73
2018-07-25T09:41:39.994Z,97146.55
2018-07-25T09:50:25.854Z,97137.28
2018-07-25T09:59:17.852Z,97128.95
2018-07-25T10:05:18.562Z,97126.33
2018-07-25T10:08:15.884Z,97121.67
2018-07-25T10:17:10.726Z,97131.64
2018-07-25T10:28:49.917Z,97119.00
2018-07-25T10:37:35.609Z,97113.84
2018-07-25T10:40:28.125Z,97110.66
2018-07-25T10:46:19.408Z,97106.17
2018-07-25T10:49:13.980Z,97105.34
2018-07-25T10:54:58.345Z,97102.72
2018-07-25T10:57:46.396Z,97102.19
2018-07-25T11:06:24.330Z,97095.02
2018-07-25T11:09:19.070Z,97093.75
2018-07-25T11:12:09.000Z,97086.27
2018-07-25T11:23:51.275Z,97072.97
2018-07-25T11:26:44.303Z,97083.80
2018-07-25T11:32:36.233Z,97074.67
2018-07-25T11:35:33.834Z,97070.61
2018-07-25T11:38:17.905Z,97077.84
2018-07-25T11:41:16.606Z,97079.89
2018-07-25T11:43:57.757Z,97074.20
2018-07-25T11:46:43.781Z,97074.19
2018-07-25T11:49:20.013Z,97076.49
2018-07-25T11:51:53.517Z,97067.78
2018-07-25T11:54:30.077Z,97077.20
2018-07-25T11:59:51.930Z,97070.41
2018-07-25T12:05:11.802Z,97070.67
2018-07-25T12:07:44.694Z,97066.33
2018-07-25T12:10:24.814Z,97065.38
2018-07-25T12:12:58.174Z,97058.33
2018-07-25T12:18:18.031Z,97063.41
2018-07-25T12:20:55.376Z,97061.35
2018-07-25T12:23:36.701Z,97058.47
2018-07-25T12:28:51.801Z,97066.77
2018-07-25T12:31:31.799Z,97069.88
2018-07-25T12:34:16.042Z,97073.11
2018-07-25T12:36:59.358Z,97076.65
2018-07-25T12:39:35.342Z,97070.28
2018-07-25T12:42:12.633Z,97074.95
2018-07-25T12:44:51.039Z,97065.47
2018-07-25T12:50:18.477Z,97074.19
2018-07-25T12:52:58.409Z,97066.52
2018-07-25T12:55:43.089Z,97069.82
2018-07-25T12:58:26.944Z,97062.47
2018-07-25T13:01:04.340Z,97063.51
2018-07-25T13:03:50.925Z,97063.63
2018-07-25T13:06:29.672Z,97066.37
2018-07-25T13:09:07.974Z,97074.31
2018-07-25T13:11:44.863Z,97074.57
2018-07-25T13:14:33.306Z,97061.42
2018-07-25T13:17:14.429Z,97059.15
2018-07-25T13:22:36.902Z,97060.70
2018-07-25T13:25:29.256Z,97035.29
2018-07-25T13:30:50.299Z,97036.90
2018-07-25T13:36:11.613Z,97023.13
2018-07-25T13:38:52.423Z,97020.23
2018-07-25T13:41:39.404Z,97027.38
2018-07-25T13:44:22.747Z,97029.18
2018-07-25T13:47:10.527Z,97029.86
2018-07-25T13:49:47.922Z,97018.84
2018-07-25T13:52:31.844Z,97019.20
2018-07-25T13:55:08.234Z,97016.38
2018-07-25T14:00:35.631Z,97025.92
2018-07-25T14:03:23.830Z,97030.90
2018-07-25T14:06:09.902Z,97036.45
2018-07-25T14:08:53.319Z,97039.51
2018-07-25T14:11:33.632Z,97040.95
2018-07-25T14:14:29.061Z,97053.47
2018-07-25T14:17:10.619Z,97046.58
2018-07-25T14:19:48.858Z,97050.80
2018-07-25T14:22:38.523Z,97048.23
2018-07-25T14:25:19.123Z,97047.55
2018-07-25T14:27:58.151Z,97048.69
2018-07-25T14:30:37.219Z,97046.25
2018-07-25T14:36:00.257Z,97054.05
2018-07-25T14:38:38.432Z,97051.30
2018-07-25T14:41:20.246Z,97044.86
2018-07-25T14:43:58.809Z,97043.22
2018-07-25T14:46:40.878Z,97042.41
2018-07-25T14:49:19.182Z,97040.81
2018-07-25T14:54:38.708Z,97032.54
2018-07-25T14:57:14.106Z,97033.70
2018-07-25T14:59:53.998Z,97034.95
2018-07-25T15:02:33.487Z,97037.63
2018-07-25T15:07:54.861Z,97025.97
2018-07-25T15:10:41.112Z,97022.34
2018-07-25T15:13:14.694Z,97024.67
2018-07-25T15:15:49.850Z,97019.66
2018-07-25T15:18:25.356Z,97019.53
2018-07-25T15:21:04.372Z,97014.92
2018-07-25T15:23:57.628Z,97021.14
2018-07-25T15:29:30.842Z,97026.08
2018-07-25T15:32:14.637Z,97027.34
2018-07-25T15:34:55.102Z,97027.34
2018-07-25T15:37:29.868Z,97027.17
2018-07-25T15:42:53.037Z,97040.00
2018-07-25T15:51:17.090Z,97037.42
2018-07-25T15:53:59.380Z,97037.38
2018-07-25T15:56:37.000Z,97037.25
2018-07-25T15:59:23.276Z,97042.23
2018-07-25T16:02:03.361Z,97045.30
2018-07-25T16:04:38.845Z,97040.77
2018-07-25T16:07:23.055Z,97038.22
2018-07-25T16:10:12.339Z,97033.63
2018-07-25T16:12:51.623Z,97033.95
2018-07-25T16:15:41.700Z,97038.28
2018-07-25T16:18:16.393Z,97031.41
2018-07-25T16:20:58.318Z,97027.16
2018-07-25T16:23:32.923Z,97031.45
2018-07-25T16:26:11.757Z,97039.94
2018-07-25T16:28:50.065Z,97035.28
2018-07-25T16:31:28.361Z,97029.86
2018-07-25T16:34:03.638Z,97040.73
2018-07-25T16:36:41.165Z,97038.56
2018-07-25T16:39:18.173Z,97041.60
2018-07-25T16:41:51.473Z,97040.22
2018-07-25T16:44:27.733Z,97040.27
2018-07-25T16:49:59.473Z,97030.66
2018-07-25T16:52:36.517Z,97036.69
2018-07-25T16:55:15.581Z,97038.72
2018-07-25T16:58:08.403Z,97036.28
2018-07-25T17:00:48.278Z,97036.16
2018-07-25T17:03:37.275Z,97034.88
2018-07-25T17:09:09.722Z,97037.16
2018-07-25T17:12:04.075Z,97039.53
2018-07-25T17:14:46.113Z,97042.14
2018-07-25T17:17:30.574Z,97044.86
2018-07-25T17:20:16.608Z,97044.70
2018-07-25T17:22:54.948Z,97047.91
2018-07-25T17:34:17.309Z,97056.91
2018-07-25T17:37:01.507Z,97055.48
2018-07-25T17:39:47.845Z,97056.19
2018-07-25T17:42:28.076Z,97045.50
2018-07-25T17:45:13.910Z,97054.48
2018-07-25T17:47:55.539Z,97053.80
2018-07-25T17:58:47.989Z,97061.94
2018-07-25T18:04:13.708Z,97072.66
2018-07-25T18:06:57.535Z,97079.56
2018-07-25T18:09:33.045Z,97081.26
2018-07-25T18:12:06.870Z,97096.87
2018-07-25T18:14:40.230Z,97101.50
2018-07-25T18:17:16.565Z,97100.20
2018-07-25T18:19:51.787Z,97107.69
2018-07-25T18:22:24.457Z,97104.84
2018-07-25T18:25:01.025Z,97101.84
2018-07-25T18:27:34.586Z,97100.96
2018-07-25T18:30:08.059Z,97104.20
2018-07-25T18:32:40.583Z,97106.16
2018-07-25T18:35:12.887Z,97109.14
2018-07-25T18:37:46.122Z,97106.91
2018-07-25T18:40:19.815Z,97108.72
2018-07-25T18:42:52.880Z,97110.52
2018-07-25T18:45:27.089Z,97117.12
2018-07-25T18:48:00.061Z,97124.00
2018-07-25T18:50:33.736Z,97126.33
2018-07-25T18:53:10.690Z,97138.81
2018-07-25T18:55:45.314Z,97146.14
2018-07-25T18:58:18.319Z,97147.95
2018-07-25T19:00:52.814Z,97149.34
2018-07-25T19:03:30.904Z,97150.19
2018-07-25T19:06:05.664Z,97147.83
2018-07-25T19:08:38.698Z,97142.94
2018-07-25T19:11:11.497Z,97142.03
2018-07-25T19:14:47.818Z,97156.72
2018-07-25T19:17:21.870Z,97159.91
2018-07-25T19:19:56.858Z,97167.81
2018-07-25T19:22:30.602Z,97164.55
2018-07-25T19:25:03.110Z,97170.00
2018-07-25T19:27:35.553Z,97163.52
2018-07-25T19:30:08.451Z,97163.72
2018-07-25T19:32:40.600Z,97167.86
2018-07-25T19:35:12.942Z,97167.02
2018-07-25T19:37:46.929Z,97173.59
2018-07-25T19:40:19.276Z,97186.25
2018-07-25T19:42:53.650Z,97182.23
2018-07-25T19:45:26.469Z,97186.30
2018-07-25T19:47:59.660Z,97183.82
2018-07-25T19:50:32.740Z,97182.25
2018-07-25T19:53:06.576Z,97184.60
2018-07-25T19:55:39.310Z,97181.02
2018-07-25T19:58:11.979Z,97168.38
2018-07-25T20:00:46.802Z,97172.66
2018-07-25T20:03:20.517Z,97165.31
2018-07-25T20:05:53.192Z,97163.63
2018-07-25T20:08:26.410Z,97164.64
2018-07-25T20:11:00.761Z,97170.70
2018-07-25T20:13:33.604Z,97169.90
2018-07-25T20:16:06.752Z,97175.31
2018-07-25T20:18:42.593Z,97194.64
2018-07-25T20:21:15.052Z,97191.23
2018-07-25T20:23:48.594Z,97194.61
2018-07-25T20:29:09.450Z,97230.51
2018-07-25T20:34:33.477Z,97257.63
2018-07-25T20:37:22.729Z,97254.39
2018-07-25T20:42:56.625Z,97270.51
2018-07-25T20:45:36.609Z,97275.28
2018-07-25T20:48:15.068Z,97287.55
2018-07-25T20:50:51.012Z,97284.68
2018-07-25T20:53:31.950Z,97276.88
2018-07-25T20:56:07.129Z,97286.71
2018-07-25T20:58:48.524Z,97280.73
2018-07-25T21:01:27.725Z,97275.39
2018-07-25T21:04:11.333Z,97281.98
2018-07-25T21:09:51.644Z,97272.80
2018-07-25T21:12:47.854Z,97265.98
2018-07-25T21:15:34.885Z,97261.14
2018-07-25T21:18:14.014Z,97253.30
2018-07-25T21:20:52.149Z,97257.87
2018-07-25T21:23:31.722Z,97266.48
2018-07-25T21:26:15.406Z,97266.97
2018-07-25T21:29:04.301Z,97276.95
2018-07-25T21:34:30.575Z,97291.80
2018-07-25T21:37:12.259Z,97298.28
2018-07-25T21:39:47.622Z,97305.22
2018-07-25T21:42:29.696Z,97298.31
2018-07-25T21:50:45.413Z,97285.41
2018-07-25T21:53:37.086Z,97284.21
2018-07-25T21:56:19.962Z,97276.91
2018-07-25T21:59:04.223Z,97277.82
2018-07-25T22:04:33.124Z,97262.03
2018-07-25T22:07:22.226Z,97265.28
2018-07-25T22:13:04.392Z,97254.92
2018-07-25T22:15:43.970Z,97251.77
2018-07-25T22:18:29.216Z,97249.38
2018-07-25T22:21:09.092Z,97247.20
2018-07-25T22:26:26.744Z,97252.33
2018-07-25T22:29:12.242Z,97259.03
2018-07-25T22:43:52.752Z,97261.11
2018-07-25T22:46:27.910Z,97252.27
2018-07-25T22:49:09.087Z,97249.64
2018-07-25T22:51:44.652Z,97244.99
2018-07-25T22:54:18.912Z,97242.13
2018-07-25T22:57:04.252Z,97236.03
2018-07-25T23:02:24.243Z,97235.52
2018-07-25T23:05:00.803Z,97240.05
2018-07-25T23:07:43.719Z,97232.83
2018-07-25T23:10:26.222Z,97243.00
2018-07-25T23:15:55.928Z,97239.25
2018-07-25T23:18:32.292Z,97240.85
2018-07-25T23:21:19.344Z,97245.12
2018-07-25T23:23:55.802Z,97246.72
2018-07-25T23:26:42.305Z,97246.97
2018-07-25T23:29:21.903Z,97249.10
2018-07-25T23:31:59.729Z,97250.17
2018-07-25T23:34:46.553Z,97242.39
2018-07-25T23:49:10.520Z,97241.39
2018-07-25T23:51:50.992Z,97239.71
2018-07-25T23:54:26.128Z,97241.28
2018-07-25T23:57:01.281Z,97235.34
2018-07-25T23:59:40.062Z,97233.09
